Time;durP1;ratioP1;P1;durP2;ratioP2;P2;SDS_P1;SDS_P2;PMS_P1;PMS_P2;Temp;Humidity;BMP_temperature;BMP_pressure;BME280_temperature;BME280_humidity;BME280_pressure;Samples;Min_cycle;Max_cycle;Signal;HPM_P1;HPM_P2
2023/07/01 00:00:02;;;;;;;;;;;;;;;;;;;;;
2023/07/01 00:02:31;;;;;;;2.60;2.40;;;17.10;99.90;;;;;;5108427;28;20419;-69
2023/07/01 00:04:59;;;;;;;3.03;2.00;;;17.00;99.90;;;;;;5110102;28;20384;-68
2023/07/01 00:07:46;;;;;;;2.40;2.20;;;17.00;99.90;;;;;;5110262;28;20636;-69
2023/07/01 00:10:32;;;;;;;3.03;1.93;;;17.10;99.90;;;;;;5109159;28;20412;-69
2023/07/01 00:12:59;;;;;;;3.10;2.90;;;17.10;99.90;;;;;;5109889;28;20431;-69
2023/07/01 00:15:27;;;;;;;2.97;2.77;;;17.00;99.90;;;;;;5110077;28;20413;-70
2023/07/01 00:17:55;;;;;;;3.10;2.80;;;17.00;99.90;;;;;;5101759;28;20400;-68
2023/07/01 00:20:31;;;;;;;2.30;2.20;;;17.00;99.90;;;;;;5094583;28;20407;-69
2023/07/01 00:23:00;;;;;;;2.73;2.40;;;17.00;99.90;;;;;;5089302;28;20601;-69
2023/07/01 00:25:28;;;;;;;4.20;2.90;;;17.00;99.90;;;;;;5072955;28;20427;-69
2023/07/01 00:27:54;;;;;;;3.10;2.40;;;17.00;99.90;;;;;;5090611;28;20519;-69
2023/07/01 00:30:30;;;;;;;7.17;3.00;;;17.00;99.90;;;;;;5088598;28;20474;-69
2023/07/01 00:33:00;;;;;;;3.43;2.40;;;17.00;99.90;;;;;;5098706;28;20434;-69
2023/07/01 00:35:26;;;;;;;7.60;3.53;;;16.90;99.90;;;;;;5092000;28;20395;-69
2023/07/01 00:37:52;;;;;;;2.97;2.70;;;16.90;99.90;;;;;;5109680;28;20379;-69
2023/07/01 00:40:23;;;;;;;2.80;2.60;;;16.90;99.90;;;;;;5108705;28;20380;-68
2023/07/01 00:43:25;;;;;;;2.27;2.17;;;16.90;99.90;;;;;;5090582;28;20374;-68
2023/07/01 00:46:26;;;;;;;6.47;2.87;;;16.90;99.90;;;;;;5082345;28;20463;-71
2023/07/01 00:49:01;;;;;;;4.57;3.07;;;16.90;99.90;;;;;;5083662;28;20446;-69
2023/07/01 00:51:28;;;;;;;4.10;2.70;;;16.90;99.90;;;;;;5087928;28;20369;-69
2023/07/01 00:53:55;;;;;;;2.43;2.23;;;16.80;99.90;;;;;;5088788;28;20415;-69
2023/07/01 00:56:24;;;;;;;3.07;2.40;;;16.90;99.90;;;;;;5096991;28;20380;-68
2023/07/01 00:59:09;;;;;;;2.60;2.50;;;16.90;99.90;;;;;;5109114;28;20372;-69
2023/07/01 01:08:23;;;;;;;2.57;2.37;;;16.90;99.90;;;;;;5094612;28;20449;-69
2023/07/01 01:11:16;;;;;;;2.53;2.33;;;16.90;99.90;;;;;;5105168;28;20406;-68
2023/07/01 01:16:41;;;;;;;3.90;2.60;;;16.90;99.90;;;;;;5056507;28;20672;-68
2023/07/01 01:19:19;;;;;;;3.17;2.93;;;16.90;99.90;;;;;;5087948;28;20418;-69
2023/07/01 01:25:48;;;;;;;2.87;2.60;;;16.90;99.90;;;;;;5089223;28;20592;-69
2023/07/01 01:28:37;;;;;;;3.93;2.50;;;16.90;99.90;;;;;;5108520;28;20375;-68
2023/07/01 01:31:32;;;;;;;2.97;2.27;;;16.90;99.90;;;;;;5091705;28;20537;-68
2023/07/01 01:34:32;;;;;;;4.97;2.50;;;16.80;99.90;;;;;;5089387;28;20463;-69
2023/07/01 01:37:24;;;;;;;2.80;2.60;;;16.90;99.90;;;;;;5087776;28;20393;-68
2023/07/01 01:40:18;;;;;;;4.37;2.40;;;16.90;99.90;;;;;;5087908;28;20530;-69
2023/07/01 01:43:03;;;;;;;3.27;2.20;;;17.00;99.90;;;;;;5074505;28;20435;-68
2023/07/01 01:45:51;;;;;;;2.33;2.00;;;17.00;99.90;;;;;;5099327;28;20471;-68
2023/07/01 01:48:41;;;;;;;3.37;3.03;;;17.10;99.90;;;;;;5108186;28;20368;-68
2023/07/01 01:51:23;;;;;;;2.20;1.83;;;17.10;99.90;;;;;;5089497;28;20453;-68
2023/07/01 01:54:03;;;;;;;;;;;;;;;;;;;;;
2023/07/01 01:56:48;;;;;;;2.20;2.00;;;17.10;99.90;;;;;;5098844;28;20416;-68
2023/07/01 01:59:34;;;;;;;2.40;2.20;;;17.10;99.90;;;;;;5090623;28;20388;-68
2023/07/01 02:02:01;;;;;;;2.97;2.77;;;17.10;99.90;;;;;;5080570;28;20397;-69
2023/07/01 02:05:15;;;;;;;4.90;2.87;;;17.10;99.90;;;;;;5086620;28;20396;-69
2023/07/01 02:08:01;;;;;;;2.50;2.30;;;17.10;99.90;;;;;;5084765;28;20404;-68
2023/07/01 02:10:28;;;;;;;6.70;3.63;;;17.10;99.90;;;;;;5104406;28;20439;-68
2023/07/01 02:13:05;;;;;;;9.60;2.50;;;17.10;99.90;;;;;;5094044;28;20524;-70
2023/07/01 02:16:08;;;;;;;2.33;2.13;;;17.10;99.90;;;;;;5107840;28;20363;-70
2023/07/01 02:19:04;;;;;;;3.20;2.90;;;17.10;99.90;;;;;;5107722;28;20391;-69
2023/07/01 02:21:30;;;;;;;7.20;2.83;;;17.10;99.90;;;;;;5106952;28;20398;-68
2023/07/01 02:24:29;;;;;;;4.17;3.13;;;17.10;99.90;;;;;;5107709;28;20395;-70
2023/07/01 02:27:08;;;;;;;4.73;3.10;;;17.10;99.90;;;;;;5101429;28;20393;-68
2023/07/01 02:29:40;;;;;;;3.97;2.73;;;17.10;99.90;;;;;;5087513;28;20416;-70
2023/07/01 02:32:15;;;;;;;3.03;2.70;;;17.10;99.90;;;;;;5086633;28;20514;-68
2023/07/01 02:34:53;;;;;;;5.50;2.97;;;17.10;99.90;;;;;;5069767;28;20524;-68
2023/07/01 02:37:19;;;;;;;4.53;3.13;;;17.10;99.90;;;;;;5087047;28;20414;-68
2023/07/01 02:39:47;;;;;;;6.27;3.47;;;17.10;99.90;;;;;;5090179;28;20396;-68
2023/07/01 02:42:40;;;;;;;;;;;;;;;;;;;;;
2023/07/01 02:45:10;;;;;;;3.73;3.43;;;17.00;99.90;;;;;;5107306;28;20427;-70
2023/07/01 02:48:12;;;;;;;;;;;;;;;;;;;;;
2023/07/01 02:50:39;;;;;;;5.73;3.20;;;17.00;99.90;;;;;;5106354;28;20450;-69
2023/07/01 02:53:20;;;;;;;3.50;3.13;;;17.00;99.90;;;;;;5107386;28;20373;-68
2023/07/01 02:56:10;;;;;;;3.67;3.37;;;17.00;99.90;;;;;;5078941;28;20625;-71
2023/07/01 02:58:35;;;;;;;3.80;3.37;;;17.00;99.90;;;;;;5094849;28;20504;-68
2023/07/01 03:01:44;;;;;;;6.20;3.33;;;17.10;99.90;;;;;;5106869;28;20434;-69
2023/07/01 03:04:28;;;;;;;4.50;3.70;;;17.10;99.90;;;;;;5089631;28;20158;-70
2023/07/01 03:06:54;;;;;;;3.57;3.27;;;17.20;99.90;;;;;;5087722;28;20501;-70
2023/07/01 03:09:27;;;;;;;4.33;3.17;;;17.20;99.90;;;;;;5107081;28;20458;-69
2023/07/01 03:12:09;;;;;;;4.07;3.67;;;17.20;99.90;;;;;;5106798;28;20137;-71
2023/07/01 03:14:35;;;;;;;3.30;3.10;;;17.20;99.90;;;;;;5107338;28;20392;-69
2023/07/01 03:20:38;;;;;;;4.97;3.43;;;17.20;99.90;;;;;;5109292;28;20153;-70
2023/07/01 03:29:31;;;;;;;4.00;3.70;;;17.20;99.90;;;;;;5028951;28;20457;-69
2023/07/01 03:32:33;;;;;;;6.80;3.60;;;17.20;99.90;;;;;;5009101;28;20392;-69
2023/07/01 03:35:15;;;;;;;4.23;3.83;;;17.20;99.90;;;;;;4989178;28;20404;-70
2023/07/01 03:37:45;;;;;;;11.37;3.60;;;17.10;99.90;;;;;;5090418;28;20440;-70
2023/07/01 03:40:20;;;;;;;4.17;3.77;;;17.10;99.90;;;;;;5089068;28;20387;-70
2023/07/01 03:42:46;;;;;;;3.63;3.33;;;17.10;99.90;;;;;;5072665;28;20427;-70
2023/07/01 03:45:22;;;;;;;4.50;2.77;;;17.00;99.90;;;;;;5099732;28;20469;-68
2023/07/01 03:47:53;;;;;;;5.10;4.17;;;17.00;99.90;;;;;;5110632;28;20411;-69
2023/07/01 03:50:39;;;;;;;5.07;3.70;;;17.00;99.90;;;;;;5091252;28;20466;-69
2023/07/01 03:53:14;;;;;;;4.63;4.23;;;16.90;99.90;;;;;;5109583;28;20405;-69
2023/07/01 03:56:15;;;;;;;;;;;;;;;;;;;;;
2023/07/01 03:58:41;;;;;;;5.00;3.80;;;16.80;99.90;;;;;;5089782;28;20392;-69
2023/07/01 04:01:27;;;;;;;4.10;3.77;;;16.80;99.90;;;;;;5089347;28;20396;-70
2023/07/01 04:04:21;;;;;;;;;;;;;;;;;;;;;
2023/07/01 04:06:57;;;;;;;;;;;;;;;;;;;;;
2023/07/01 04:09:39;;;;;;;;;;;;;;;;;;;;;
2023/07/01 04:12:11;;;;;;;4.10;3.70;;;16.80;99.90;;;;;;5109084;28;20526;-69
2023/07/01 04:15:18;;;;;;;3.70;3.40;;;16.80;99.90;;;;;;5105229;28;20528;-70
2023/07/01 04:18:16;;;;;;;7.13;3.90;;;16.80;99.90;;;;;;5089737;28;20372;-69
2023/07/01 04:21:30;;;;;;;5.73;4.20;;;16.70;99.90;;;;;;5073760;28;20392;-69
2023/07/01 04:23:56;;;;;;;4.67;4.37;;;16.70;99.90;;;;;;5087674;28;20468;-69
2023/07/01 04:27:02;;;;;;;;;;;;;;;;;;;;;
2023/07/01 04:29:28;;;;;;;6.53;4.30;;;16.60;99.90;;;;;;5069443;28;20493;-71
2023/07/01 04:32:23;;;;;;;;;;;;;;;;;;;;;
2023/07/01 04:35:30;;;;;;;4.77;4.23;;;16.60;99.90;;;;;;5090644;28;20664;-70
2023/07/01 04:41:32;;;;;;;5.00;4.40;;;16.60;99.90;;;;;;5007647;28;20629;-70
2023/07/01 04:43:58;;;;;;;8.87;5.37;;;16.60;99.90;;;;;;5008584;28;20576;-71
2023/07/01 04:46:24;;;;;;;6.70;4.50;;;16.50;99.90;;;;;;5077430;28;20387;-70
2023/07/01 04:48:50;;;;;;;5.40;4.40;;;16.50;99.90;;;;;;5088587;28;20495;-70
2023/07/01 04:51:42;;;;;;;4.73;4.30;;;16.50;99.90;;;;;;5098613;28;20161;-71
2023/07/01 04:54:17;;;;;;;5.27;4.80;;;16.50;99.90;;;;;;5098220;28;20440;-69
2023/07/01 04:57:01;;;;;;;8.87;5.70;;;16.50;99.90;;;;;;5109207;28;20375;-70
2023/07/01 04:59:47;;;;;;;6.87;5.90;;;16.50;99.90;;;;;;5091545;28;20387;-71
2023/07/01 05:02:23;;;;;;;6.70;4.90;;;16.40;99.90;;;;;;5094543;28;20569;-70
2023/07/01 05:04:49;;;;;;;13.60;5.37;;;16.30;99.90;;;;;;5089430;28;20404;-70
2023/07/01 05:07:17;;;;;;;6.53;4.90;;;16.30;99.90;;;;;;5108778;28;20375;-70
2023/07/01 05:09:59;;;;;;;6.00;5.23;;;16.20;99.90;;;;;;5108733;28;20447;-69
2023/07/01 05:13:10;;;;;;;5.87;5.47;;;16.10;99.90;;;;;;5108026;28;20387;-70
2023/07/01 05:15:37;;;;;;;7.50;5.77;;;16.10;99.90;;;;;;5106963;28;20388;-71
2023/07/01 05:18:42;;;;;;;10.53;5.43;;;16.00;99.90;;;;;;5108731;28;20382;-72
2023/07/01 05:21:32;;;;;;;5.47;5.07;;;15.90;1.00;;;;;;5010434;28;20419;-69
2023/07/01 05:27:07;;;;;;;6.33;5.83;;;16.00;1.00;;;;;;5093590;28;20375;-69
2023/07/01 05:29:36;;;;;;;7.30;6.33;;;16.00;1.00;;;;;;5090439;28;20439;-69
2023/07/01 05:35:33;;;;;;;6.77;5.70;;;16.00;1.00;;;;;;5107033;28;20391;-69
2023/07/01 05:38:23;;;;;;;9.40;6.80;;;16.00;1.00;;;;;;5108403;28;20692;-69
2023/07/01 05:40:49;;;;;;;6.50;5.90;;;16.00;1.00;;;;;;5107566;28;20451;-74
2023/07/01 05:44:25;;;;;;;;;;;;;;;;;;;;;
2023/07/01 05:46:41;;;;;;;;;;;;;;;;;;;;;
2023/07/01 05:49:51;;;;;;;7.23;6.33;;;16.00;1.00;;;;;;5088030;28;20442;-69
2023/07/01 05:52:20;;;;;;;9.30;5.87;;;16.10;1.00;;;;;;5085366;28;20381;-71
2023/07/01 05:54:57;;;;;;;;;;;;;;;;;;;;;
2023/07/01 05:58:17;;;;;;;;;;;;;;;;;;;;;
2023/07/01 06:01:18;;;;;;;6.77;6.17;;;15.90;1.00;;;;;;5024120;28;20411;-74
2023/07/01 06:03:46;;;;;;;11.70;7.40;;;15.90;1.00;;;;;;5027877;28;20411;-70
2023/07/01 06:06:24;;;;;;;8.00;7.20;;;15.90;1.00;;;;;;5024940;28;20418;-73
2023/07/01 06:08:50;;;;;;;6.80;6.20;;;15.90;1.00;;;;;;5061160;28;20388;-71
2023/07/01 06:11:16;;;;;;;7.30;6.70;;;15.90;1.00;;;;;;5087953;28;20509;-70
2023/07/01 06:13:48;;;;;;;10.27;6.63;;;15.90;1.00;;;;;;5074122;28;20240;-72
2023/07/01 06:16:14;;;;;;;8.43;7.57;;;15.80;1.00;;;;;;5107881;28;20430;-69
2023/07/01 06:18:41;;;;;;;7.30;6.57;;;15.80;1.00;;;;;;5107673;28;20364;-69
2023/07/01 06:21:08;;;;;;;9.20;6.93;;;15.80;1.00;;;;;;5107028;28;20453;-72
2023/07/01 06:23:37;;;;;;;7.80;6.97;;;15.80;1.00;;;;;;5107784;28;20372;-70
2023/07/01 06:26:12;;;;;;;7.77;7.13;;;15.80;1.00;;;;;;5101922;28;20389;-70
2023/07/01 06:28:41;;;;;;;7.60;7.00;;;15.70;1.00;;;;;;5070165;28;20400;-72
2023/07/01 06:31:07;;;;;;;8.93;7.17;;;15.80;1.00;;;;;;5088772;28;20404;-70
2023/07/01 06:33:38;;;;;;;7.40;6.67;;;15.70;1.00;;;;;;5090002;28;20475;-70
2023/07/01 06:36:05;;;;;;;12.83;7.50;;;15.70;1.00;;;;;;5090047;28;20387;-70
2023/07/01 06:41:27;;;;;;;7.70;7.10;;;15.70;1.00;;;;;;5106629;28;20566;-71
2023/07/01 06:43:53;;;;;;;8.03;7.30;;;15.80;1.00;;;;;;5089825;28;20423;-71
2023/07/01 06:46:22;;;;;;;9.27;8.10;;;15.70;1.00;;;;;;5089229;28;20408;-70
2023/07/01 06:49:14;;;;;;;12.73;7.50;;;15.70;1.00;;;;;;5094373;28;20432;-70
2023/07/01 06:52:43;;;;;;;;;;;;;;;;;;;;;
2023/07/01 06:58:59;;;;;;;;;;;;;;;;;;;;;
2023/07/01 07:05:25;;;;;;;8.23;6.70;;;15.80;1.00;;;;;;5110714;28;20406;-69
2023/07/01 07:12:00;;;;;;;10.23;6.77;;;15.80;1.00;;;;;;5091311;28;20479;-71
2023/07/01 07:14:29;;;;;;;8.03;6.60;;;15.90;1.00;;;;;;5090217;28;20393;-72
2023/07/01 07:16:55;;;;;;;12.87;6.53;;;15.90;1.00;;;;;;5091008;28;20387;-70
2023/07/01 07:19:54;;;;;;;7.63;6.80;;;15.90;1.00;;;;;;5090759;28;20404;-71
2023/07/01 07:33:08;;;;;;;7.80;7.10;;;16.00;1.00;;;;;;5090061;28;20403;-71
2023/07/01 07:35:58;;;;;;;10.27;6.90;;;16.00;1.00;;;;;;5092167;28;20425;-71
2023/07/01 07:38:24;;;;;;;10.00;6.37;;;15.90;1.00;;;;;;5097289;28;20461;-73
2023/07/01 07:47:32;;;;;;;11.67;6.30;;;15.80;1.00;;;;;;5067630;28;20468;-72
2023/07/01 07:50:43;;;;;;;10.10;7.33;;;15.80;1.00;;;;;;5061946;28;20586;-71
2023/07/01 07:53:09;;;;;;;11.77;8.47;;;15.80;1.00;;;;;;5068596;28;20489;-70
2023/07/01 07:56:37;;;;;;;8.90;7.63;;;15.80;1.00;;;;;;5068875;28;20370;-70
2023/07/01 08:12:41;;;;;;;10.80;8.53;;;15.70;94.10;;;;;;4950057;29;20383;-72
2023/07/01 08:16:00;;;;;;;10.60;9.57;;;15.60;94.00;;;;;;4950503;29;20435;-75
2023/07/01 08:22:14;;;;;;;11.17;10.13;;;15.60;99.90;;;;;;5008362;28;20368;-72
2023/07/01 08:39:01;;;;;;;12.53;11.33;;;15.60;99.90;;;;;;5028409;28;20390;-70
2023/07/01 08:42:03;;;;;;;14.40;11.10;;;15.50;99.90;;;;;;5026297;28;20493;-73
2023/07/01 08:45:25;;;;;;;11.73;10.53;;;15.50;99.90;;;;;;5027738;28;20439;-74
2023/07/01 08:48:21;;;;;;;11.73;10.63;;;15.50;99.90;;;;;;4950239;28;20707;-74
2023/07/01 08:58:19;;;;;;;;;;;;;;;;;;;;;
2023/07/01 09:03:35;;;;;;;11.43;10.50;;;15.80;99.90;;;;;;5006714;28;20544;-73
2023/07/01 09:10:00;;;;;;;14.67;13.20;;;15.60;99.90;;;;;;5109168;28;20434;-72
2023/07/01 09:16:39;;;;;;;15.00;13.50;;;15.70;99.90;;;;;;5047799;28;20370;-72
2023/07/01 09:19:16;;;;;;;13.87;12.47;;;15.70;99.90;;;;;;5040781;28;20555;-73
2023/07/01 09:29:15;;;;;;;13.60;12.20;;;15.70;99.90;;;;;;5045069;28;20390;-71
2023/07/01 09:31:59;;;;;;;16.87;14.00;;;15.70;99.90;;;;;;5046372;28;20410;-70
2023/07/01 09:34:25;;;;;;;14.83;13.43;;;15.60;99.90;;;;;;5046052;28;20542;-71
2023/07/01 09:37:42;;;;;;;16.57;14.77;;;15.70;99.90;;;;;;5047013;28;20390;-70
2023/07/01 09:40:42;;;;;;;13.57;12.27;;;15.70;99.90;;;;;;5028926;28;20421;-71
2023/07/01 09:43:26;;;;;;;17.30;13.03;;;15.70;99.90;;;;;;5063620;28;20461;-70
2023/07/01 09:45:56;;;;;;;18.00;12.30;;;15.70;99.90;;;;;;5107562;28;20386;-69
2023/07/01 09:59:01;;;;;;;12.13;10.83;;;15.70;99.90;;;;;;5088043;28;20428;-73
2023/07/01 10:01:55;;;;;;;;;;;;;;;;;;;;;
2023/07/01 10:07:45;;;;;;;12.67;11.40;;;15.70;99.90;;;;;;5087875;28;20375;-70
2023/07/01 10:10:18;;;;;;;13.83;12.40;;;15.80;99.90;;;;;;5087038;28;20428;-69
2023/07/01 10:13:37;;;;;;;13.63;11.77;;;15.80;99.90;;;;;;5087226;28;20368;-71
2023/07/01 10:16:07;;;;;;;13.90;12.63;;;15.80;99.90;;;;;;5100687;28;20395;-69
2023/07/01 10:25:38;;;;;;;12.97;11.77;;;15.80;1.00;;;;;;5006184;28;20380;-69
2023/07/01 10:28:37;;;;;;;15.23;11.67;;;15.80;1.00;;;;;;5006962;28;20391;-69
2023/07/01 10:31:02;;;;;;;13.80;11.43;;;15.80;1.00;;;;;;5004536;28;20648;-69
2023/07/01 10:33:40;;;;;;;14.10;12.70;;;15.90;1.00;;;;;;5006678;28;20425;-70
2023/07/01 10:36:36;;;;;;;;;;;;;;;;;;;;;
2023/07/01 10:43:14;;;;;;;11.90;10.80;;;16.00;1.00;;;;;;5086998;28;20621;-70
2023/07/01 10:46:27;;;;;;;;;;;;;;;;;;;;;
2023/07/01 10:52:39;;;;;;;10.37;9.57;;;16.00;1.00;;;;;;5086563;28;20364;-70
2023/07/01 11:08:47;;;;;;;9.43;8.70;;;16.00;1.00;;;;;;4989980;28;20374;-68
2023/07/01 11:11:19;;;;;;;9.20;8.40;;;16.10;1.00;;;;;;5076785;28;20512;-71
2023/07/01 11:18:04;;;;;;;9.47;8.67;;;16.00;1.00;;;;;;5045938;28;20405;-71
2023/07/01 11:21:30;;;;;;;8.80;8.17;;;16.10;1.00;;;;;;5050764;28;20621;-68
2023/07/01 11:27:42;;;;;;;9.63;8.70;;;16.20;1.00;;;;;;5076125;28;20391;-71
2023/07/01 11:33:53;;;;;;;8.90;8.30;;;16.30;1.00;;;;;;5087111;28;20583;-71
2023/07/01 11:36:38;;;;;;;8.70;8.00;;;16.30;1.00;;;;;;5087863;28;20403;-69
2023/07/01 11:45:47;;;;;;;8.83;8.10;;;16.50;1.00;;;;;;5090147;28;20528;-71
2023/07/01 11:51:19;;;;;;;8.63;7.90;;;16.40;1.00;;;;;;5089073;28;20442;-69
2023/07/01 11:53:59;;;;;;;9.77;7.67;;;16.50;1.00;;;;;;5090328;28;20412;-69
2023/07/01 11:59:58;;;;;;;8.40;7.80;;;16.70;1.00;;;;;;5028483;28;20399;-70
2023/07/01 12:09:18;;;;;;;8.90;8.10;;;16.70;1.00;;;;;;5097024;28;20422;-70
2023/07/01 12:12:23;;;;;;;8.47;7.87;;;16.80;1.00;;;;;;5109238;28;20391;-69
2023/07/01 12:15:13;;;;;;;;;;;;;;;;;;;;;
2023/07/01 12:17:42;;;;;;;8.40;7.80;;;16.80;1.00;;;;;;5109025;28;20434;-69
2023/07/01 12:20:09;;;;;;;7.90;7.30;;;16.80;1.00;;;;;;5107150;28;20399;-69
2023/07/01 12:32:14;;;;;;;7.70;7.20;;;17.00;1.00;;;;;;5088872;28;20584;-71
2023/07/01 12:35:21;;;;;;;6.50;5.90;;;17.20;1.00;;;;;;5071744;28;20405;-69
2023/07/01 12:41:06;;;;;;;6.87;6.27;;;17.10;1.00;;;;;;5088706;28;20620;-71
2023/07/01 12:53:42;;;;;;;6.90;6.20;;;17.20;1.00;;;;;;5067949;28;20406;-72
2023/07/01 12:56:34;;;;;;;6.97;6.37;;;17.20;1.00;;;;;;5108930;28;20638;-68
2023/07/01 12:59:37;;;;;;;8.27;7.60;;;17.20;1.00;;;;;;5109280;28;20588;-68
2023/07/01 13:02:04;;;;;;;8.00;7.30;;;17.30;1.00;;;;;;5107391;28;20571;-68
2023/07/01 13:04:30;;;;;;;7.60;6.80;;;17.20;1.00;;;;;;5109049;28;20505;-69
2023/07/01 13:07:45;;;;;;;7.50;6.90;;;17.20;1.00;;;;;;5091166;28;20392;-70
2023/07/01 13:17:03;;;;;;;9.10;8.20;;;17.30;1.00;;;;;;5047101;28;20621;-69
2023/07/01 13:23:54;;;;;;;;;;;;;;;;;;;;;
2023/07/01 13:27:15;;;;;;;8.63;7.90;;;17.10;1.00;;;;;;4970878;28;20445;-68
2023/07/01 13:30:12;;;;;;;8.53;7.83;;;17.10;9.50;;;;;;4885415;29;20453;-69
2023/07/01 13:36:24;;;;;;;8.40;7.67;;;17.30;39.80;;;;;;4911764;29;20377;-70
2023/07/01 13:38:50;;;;;;;9.03;8.17;;;17.30;44.20;;;;;;4895976;29;20396;-69
2023/07/01 13:41:26;;;;;;;9.20;8.30;;;17.20;39.60;;;;;;4980929;28;20480;-69
2023/07/01 13:44:30;;;;;;;9.20;8.33;;;17.30;50.30;;;;;;5019467;28;20410;-72
2023/07/01 13:47:36;;;;;;;8.80;8.00;;;17.30;67.50;;;;;;5010702;28;20388;-72
2023/07/01 13:58:10;;;;;;;;;;;;;;;;;;;;;
2023/07/01 14:00:46;;;;;;;11.07;9.17;;;17.50;99.90;;;;;;4894191;29;20429;-72
2023/07/01 14:03:49;;;;;;;9.20;8.40;;;17.50;99.90;;;;;;4967558;29;20441;-72
2023/07/01 14:13:53;;;;;;;9.40;8.50;;;17.60;99.90;;;;;;4967641;29;20392;-71
2023/07/01 14:16:54;;;;;;;9.17;8.27;;;17.60;99.90;;;;;;4950414;28;20454;-69
2023/07/01 14:23:17;;;;;;;10.73;9.60;;;17.60;99.90;;;;;;4908936;29;20396;-72
2023/07/01 14:33:05;;;;;;;9.23;8.30;;;17.50;99.90;;;;;;4963834;28;20458;-69
2023/07/01 14:35:32;;;;;;;10.23;9.10;;;17.50;99.90;;;;;;5026561;28;20411;-70
2023/07/01 14:38:32;;;;;;;;;;;;;;;;;;;;;
2023/07/01 14:41:41;;;;;;;8.90;8.00;;;17.60;99.90;;;;;;5105908;28;20423;-71
2023/07/01 14:48:30;;;;;;;13.60;7.57;;;17.70;99.90;;;;;;5108106;28;20375;-69
2023/07/01 15:08:04;;;;;;;10.13;7.97;;;17.70;99.90;;;;;;5087063;28;20412;-73
2023/07/01 15:10:47;;;;;;;;;;;;;;;;;;;;;
2023/07/01 15:24:04;;;;;;;8.07;6.60;;;17.70;99.90;;;;;;5029844;28;20410;-68
2023/07/01 15:40:52;;;;;;;9.00;5.77;;;18.00;99.90;;;;;;4971927;28;20394;-73
2023/07/01 15:43:24;;;;;;;5.77;5.23;;;18.10;99.90;;;;;;4970840;28;20484;-69
2023/07/01 16:05:06;;;;;;;5.27;4.77;;;18.30;99.90;;;;;;4931911;29;20569;-71
2023/07/01 16:11:38;;;;;;;5.50;4.73;;;18.40;99.90;;;;;;5089140;28;20477;-70
2023/07/01 16:17:58;;;;;;;4.77;4.30;;;18.40;99.90;;;;;;5067810;28;20593;-71
2023/07/01 16:21:23;;;;;;;;;;;;;;;;;;;;;
2023/07/01 16:24:40;;;;;;;;;;;;;;;;;;;;;
2023/07/01 16:28:00;;;;;;;;;;;;;;;;;;;;;
2023/07/01 16:30:58;;;;;;;6.13;5.50;;;18.80;99.90;;;;;;5088265;28;20452;-73
2023/07/01 16:58:28;;;;;;;;;;;;;;;;;;;;;
2023/07/01 17:05:04;;;;;;;5.73;5.17;;;19.20;5.00;;;;;;5021733;28;20408;-71
2023/07/01 17:08:06;;;;;;;8.60;5.53;;;19.20;1.00;;;;;;5088805;28;20387;-71
2023/07/01 17:11:30;;;;;;;;;;;;;;;;;;;;;
2023/07/01 17:17:44;;;;;;;7.30;4.90;;;19.10;1.00;;;;;;5001445;28;20415;-75
2023/07/01 17:20:25;;;;;;;6.10;5.50;;;18.90;1.00;;;;;;5007075;28;20399;-70
2023/07/01 17:23:09;;;;;;;;;;;;;;;;;;;;;
2023/07/01 17:26:04;;;;;;;;;;;;;;;;;;;;;
2023/07/01 17:29:06;;;;;;;;;;;;;;;;;;;;;
2023/07/01 17:31:59;;;;;;;9.67;5.20;;;18.80;1.00;;;;;;5107802;28;20421;-73
2023/07/01 17:34:46;;;;;;;6.53;5.07;;;18.90;1.00;;;;;;5108317;28;20604;-71
2023/07/01 17:38:44;;;;;;;;;;;;;;;;;;;;;
2023/07/01 17:43:42;;;;;;;5.33;4.83;;;18.70;1.00;;;;;;5077025;28;20461;-72
2023/07/01 17:46:11;;;;;;;5.63;5.20;;;18.70;1.00;;;;;;5108552;28;20379;-72
2023/07/01 17:48:37;;;;;;;5.23;4.37;;;18.60;1.00;;;;;;5108158;28;20375;-74
2023/07/01 17:51:03;;;;;;;8.33;5.70;;;18.50;1.00;;;;;;5107713;28;20430;-70
2023/07/01 17:53:39;;;;;;;;;;;;;;;;;;;;;
2023/07/01 18:03:16;;;;;;;4.93;4.53;;;18.40;1.00;;;;;;5087518;28;20352;-71
2023/07/01 18:13:42;;;;;;;;;;;;;;;;;;;;;
2023/07/01 18:16:03;;;;;;;;;;;;;;;;;;;;;
2023/07/01 18:22:28;;;;;;;5.27;4.77;;;18.40;1.00;;;;;;5105938;28;20398;-73
2023/07/01 18:25:38;;;;;;;6.07;4.70;;;18.40;1.00;;;;;;5106292;28;20426;-71
2023/07/01 18:28:04;;;;;;;9.03;5.33;;;18.40;1.00;;;;;;5059464;28;20421;-74
2023/07/01 18:30:49;;;;;;;5.23;4.73;;;18.30;1.00;;;;;;5088500;28;20427;-76
2023/07/01 18:33:15;;;;;;;8.20;6.17;;;18.30;1.00;;;;;;5070736;28;20420;-74
2023/07/01 18:36:03;;;;;;;6.60;5.17;;;18.20;1.00;;;;;;5087641;28;20369;-74
2023/07/01 18:52:06;;;;;;;7.63;5.30;;;18.00;1.00;;;;;;4990250;28;20406;-73
2023/07/01 18:55:21;;;;;;;7.23;5.10;;;18.10;1.00;;;;;;5030464;28;20398;-73
2023/07/01 19:04:58;;;;;;;7.20;5.60;;;17.90;1.00;;;;;;4983906;28;20432;-72
2023/07/01 19:07:34;;;;;;;;;;;;;;;;;;;;;
2023/07/01 19:17:07;;;;;;;4.70;4.20;;;17.80;1.00;;;;;;5009376;28;20466;-72
2023/07/01 19:20:16;;;;;;;7.93;4.63;;;17.70;1.00;;;;;;5090265;28;20641;-73
2023/07/01 19:22:55;;;;;;;8.63;4.30;;;17.60;1.00;;;;;;5090814;28;20588;-73
2023/07/01 19:32:58;;;;;;;10.80;4.47;;;17.60;1.00;;;;;;5097999;28;20557;-74
2023/07/01 19:36:16;;;;;;;10.83;5.33;;;17.60;1.00;;;;;;5110436;28;20372;-73
2023/07/01 19:42:48;;;;;;;5.33;3.90;;;17.50;1.00;;;;;;5110175;28;20364;-71
2023/07/01 19:45:53;;;;;;;;;;;;;;;;;;;;;
2023/07/01 19:48:43;;;;;;;;;;;;;;;;;;;;;
2023/07/01 19:51:47;;;;;;;;;;;;;;;;;;;;;
2023/07/01 19:58:23;;;;;;;6.03;3.83;;;17.10;1.00;;;;;;5110554;28;20604;-70
2023/07/01 20:11:02;;;;;;;4.30;3.47;;;17.00;1.00;;;;;;4990041;28;20487;-72
2023/07/01 20:13:47;;;;;;;5.77;3.30;;;17.00;1.00;;;;;;4989588;28;20633;-70
2023/07/01 20:20:05;;;;;;;;;;;;;;;;;;;;;
2023/07/01 20:26:39;;;;;;;6.60;3.03;;;17.10;1.00;;;;;;4969752;29;20404;-73
2023/07/01 20:29:12;;;;;;;6.70;3.53;;;17.00;1.00;;;;;;4977470;28;20496;-73
2023/07/01 20:39:26;;;;;;;9.23;4.30;;;16.90;1.00;;;;;;5028439;28;20537;-70
2023/07/01 20:42:31;;;;;;;4.77;3.13;;;16.90;1.00;;;;;;4953059;28;20417;-69
2023/07/01 20:45:04;;;;;;;6.90;3.00;;;16.90;1.00;;;;;;4978457;28;20408;-70
2023/07/01 20:59:02;;;;;;;6.60;2.80;;;16.80;1.00;;;;;;5020717;28;20402;-72
2023/07/01 21:01:44;;;;;;;;;;;;;;;;;;;;;
2023/07/01 21:05:23;;;;;;;2.60;2.40;;;16.70;1.00;;;;;;5022631;28;20419;-72
2023/07/01 21:08:06;;;;;;;6.30;3.00;;;16.70;1.00;;;;;;5018927;28;20628;-70
2023/07/01 21:14:14;;;;;;;;;;;;;;;;;;;;;
2023/07/01 21:17:07;;;;;;;;;;;;;;;;;;;;;
2023/07/01 21:20:23;;;;;;;8.63;2.70;;;16.70;1.00;;;;;;5007438;28;20435;-70
2023/07/01 21:22:58;;;;;;;4.47;2.60;;;16.70;1.00;;;;;;5007911;28;20392;-71
2023/07/01 21:25:37;;;;;;;5.93;2.67;;;16.70;1.00;;;;;;5006936;28;20502;-73
2023/07/01 21:31:48;;;;;;;11.13;3.10;;;16.70;1.00;;;;;;5046451;28;20391;-71
2023/07/01 21:34:34;;;;;;;8.73;2.87;;;16.70;1.00;;;;;;5030716;28;20411;-72
2023/07/01 21:44:02;;;;;;;2.93;2.50;;;16.60;1.00;;;;;;4911205;29;20428;-72
2023/07/01 21:50:27;;;;;;;8.27;3.07;;;16.60;1.00;;;;;;4892669;29;20780;-71
2023/07/01 21:56:31;;;;;;;9.63;4.33;;;16.50;1.00;;;;;;4911567;29;20424;-70
2023/07/01 21:59:17;;;;;;;3.43;3.07;;;16.50;1.00;;;;;;4911082;29;20450;-70
2023/07/01 22:02:39;;;;;;;11.47;3.40;;;16.60;1.00;;;;;;4967921;28;20404;-72
2023/07/01 22:09:23;;;;;;;8.20;2.93;;;16.50;1.00;;;;;;5080120;28;20379;-71
2023/07/01 22:21:39;;;;;;;5.93;2.57;;;16.40;99.90;;;;;;5005099;28;20384;-69
2023/07/01 22:31:50;;;;;;;4.70;2.50;;;16.40;99.90;;;;;;5025988;28;20558;-69
2023/07/01 22:44:50;;;;;;;5.80;2.93;;;16.40;99.90;;;;;;5026480;28;20393;-68
2023/07/01 22:50:37;;;;;;;12.07;3.97;;;16.30;99.90;;;;;;5041636;28;20438;-69
2023/07/01 22:53:05;;;;;;;5.93;2.70;;;16.40;99.90;;;;;;5087390;28;20376;-71
2023/07/01 23:09:32;;;;;;;9.33;2.50;;;16.40;99.90;;;;;;5087337;28;20672;-68
2023/07/01 23:15:52;;;;;;;6.87;2.40;;;16.40;99.90;;;;;;5107139;28;20531;-69
2023/07/01 23:18:35;;;;;;;;;;;;;;;;;;;;;
2023/07/01 23:46:07;;;;;;;;;;;;;;;;;;;;;
2023/07/01 23:49:17;;;;;;;7.10;3.60;;;16.30;99.90;;;;;;4886582;29;20425;-68
2023/07/01 23:52:10;;;;;;;20.37;4.33;;;16.30;99.90;;;;;;4931494;29;20484;-70
2023/07/01 23:58:19;;;;;;;;;;;;;;;;;;;;;
